sensor_id;sensor_type;location;lat;lon;timestamp;P1;durP1;ratioP1;P2;durP2;ratioP2
80510;SDS011;69840;53.040;8.600;2023-05-10T00:01:02;15.07;;;8.82;;
80510;SDS011;69840;53.040;8.600;2023-05-10T00:03:30;15.07;;;8.35;;
80510;SDS011;69840;53.040;8.600;2023-05-10T00:05:57;14.00;;;8.80;;
80510;SDS011;69840;53.040;8.600;2023-05-10T00:08:25;15.57;;;9.75;;
80510;SDS011;69840;53.040;8.600;2023-05-10T00:10:52;14.27;;;9.32;;
80510;SDS011;69840;53.040;8.600;2023-05-10T00:13:20;16.67;;;10.38;;
80510;SDS011;69840;53.040;8.600;2023-05-10T00:15:47;17.23;;;10.25;;
80510;SDS011;69840;53.040;8.600;2023-05-10T00:18:15;10.93;;;7.00;;
80510;SDS011;69840;53.040;8.600;2023-05-10T00:20:43;17.65;;;10.50;;
80510;SDS011;69840;53.040;8.600;2023-05-10T00:23:10;16.40;;;9.35;;
80510;SDS011;69840;53.040;8.600;2023-05-10T00:25:37;14.60;;;9.20;;
80510;SDS011;69840;53.040;8.600;2023-05-10T00:28:05;19.35;;;9.95;;
80510;SDS011;69840;53.040;8.600;2023-05-10T00:30:32;16.70;;;9.88;;
80510;SDS011;69840;53.040;8.600;2023-05-10T00:33:01;19.88;;;10.50;;
80510;SDS011;69840;53.040;8.600;2023-05-10T00:35:28;15.38;;;7.55;;
80510;SDS011;69840;53.040;8.600;2023-05-10T00:37:56;18.85;;;10.30;;
80510;SDS011;69840;53.040;8.600;2023-05-10T00:40:23;15.88;;;9.23;;
80510;SDS011;69840;53.040;8.600;2023-05-10T00:42:55;17.33;;;10.13;;
80510;SDS011;69840;53.040;8.600;2023-05-10T00:45:23;15.18;;;9.10;;
80510;SDS011;69840;53.040;8.600;2023-05-10T00:47:51;14.57;;;8.52;;
80510;SDS011;69840;53.040;8.600;2023-05-10T00:50:18;18.83;;;10.70;;
80510;SDS011;69840;53.040;8.600;2023-05-10T00:52:46;21.27;;;10.52;;
80510;SDS011;69840;53.040;8.600;2023-05-10T00:55:14;21.25;;;9.50;;
80510;SDS011;69840;53.040;8.600;2023-05-10T00:57:41;19.50;;;10.75;;
80510;SDS011;69840;53.040;8.600;2023-05-10T01:00:09;19.83;;;10.80;;
80510;SDS011;69840;53.040;8.600;2023-05-10T01:02:37;14.52;;;8.35;;
80510;SDS011;69840;53.040;8.600;2023-05-10T01:05:05;14.23;;;9.43;;
80510;SDS011;69840;53.040;8.600;2023-05-10T01:07:33;15.35;;;9.52;;
80510;SDS011;69840;53.040;8.600;2023-05-10T01:10:00;14.88;;;9.45;;
80510;SDS011;69840;53.040;8.600;2023-05-10T01:12:28;14.77;;;9.75;;
80510;SDS011;69840;53.040;8.600;2023-05-10T01:14:55;15.70;;;8.63;;
80510;SDS011;69840;53.040;8.600;2023-05-10T01:17:23;14.35;;;8.80;;
80510;SDS011;69840;53.040;8.600;2023-05-10T01:19:51;19.48;;;10.82;;
80510;SDS011;69840;53.040;8.600;2023-05-10T01:34:23;10.90;;;7.70;;
80510;SDS011;69840;53.040;8.600;2023-05-10T01:36:58;12.05;;;7.93;;
80510;SDS011;69840;53.040;8.600;2023-05-10T01:39:32;12.07;;;7.43;;
80510;SDS011;69840;53.040;8.600;2023-05-10T01:45:23;10.27;;;6.75;;
80510;SDS011;69840;53.040;8.600;2023-05-10T01:47:48;8.57;;;6.60;;
80510;SDS011;69840;53.040;8.600;2023-05-10T01:50:22;10.68;;;6.70;;
80510;SDS011;69840;53.040;8.600;2023-05-10T01:52:55;12.65;;;7.05;;
80510;SDS011;69840;53.040;8.600;2023-05-10T01:55:26;11.35;;;6.85;;
80510;SDS011;69840;53.040;8.600;2023-05-10T01:57:58;11.55;;;7.65;;
80510;SDS011;69840;53.040;8.600;2023-05-10T02:00:33;10.25;;;8.35;;
80510;SDS011;69840;53.040;8.600;2023-05-10T02:03:06;11.57;;;7.13;;
80510;SDS011;69840;53.040;8.600;2023-05-10T02:05:37;11.05;;;7.80;;
80510;SDS011;69840;53.040;8.600;2023-05-10T02:08:06;12.07;;;7.53;;
80510;SDS011;69840;53.040;8.600;2023-05-10T02:13:05;12.50;;;7.20;;
80510;SDS011;69840;53.040;8.600;2023-05-10T02:15:33;10.80;;;7.97;;
80510;SDS011;69840;53.040;8.600;2023-05-10T02:18:01;10.32;;;7.15;;
80510;SDS011;69840;53.040;8.600;2023-05-10T02:20:31;10.90;;;6.90;;
80510;SDS011;69840;53.040;8.600;2023-05-10T02:22:59;10.40;;;7.05;;
80510;SDS011;69840;53.040;8.600;2023-05-10T02:25:29;17.33;;;6.65;;
80510;SDS011;69840;53.040;8.600;2023-05-10T02:27:59;11.70;;;7.05;;
80510;SDS011;69840;53.040;8.600;2023-05-10T02:30:28;10.10;;;6.55;;
80510;SDS011;69840;53.040;8.600;2023-05-10T02:32:58;10.60;;;6.85;;
80510;SDS011;69840;53.040;8.600;2023-05-10T02:35:26;10.38;;;6.45;;
80510;SDS011;69840;53.040;8.600;2023-05-10T02:37:55;9.65;;;6.78;;
80510;SDS011;69840;53.040;8.600;2023-05-10T02:40:25;10.18;;;6.80;;
80510;SDS011;69840;53.040;8.600;2023-05-10T02:42:56;10.50;;;7.30;;
80510;SDS011;69840;53.040;8.600;2023-05-10T02:45:27;12.05;;;7.40;;
80510;SDS011;69840;53.040;8.600;2023-05-10T02:47:57;8.52;;;6.57;;
80510;SDS011;69840;53.040;8.600;2023-05-10T02:50:26;13.55;;;7.97;;
80510;SDS011;69840;53.040;8.600;2023-05-10T02:52:56;11.75;;;7.55;;
80510;SDS011;69840;53.040;8.600;2023-05-10T02:55:29;10.65;;;7.85;;
80510;SDS011;69840;53.040;8.600;2023-05-10T02:58:00;9.82;;;7.55;;
80510;SDS011;69840;53.040;8.600;2023-05-10T03:00:28;11.35;;;7.20;;
80510;SDS011;69840;53.040;8.600;2023-05-10T03:02:55;8.73;;;6.07;;
80510;SDS011;69840;53.040;8.600;2023-05-10T03:05:24;9.55;;;6.68;;
80510;SDS011;69840;53.040;8.600;2023-05-10T03:07:52;11.63;;;8.55;;
80510;SDS011;69840;53.040;8.600;2023-05-10T03:10:21;9.77;;;7.53;;
80510;SDS011;69840;53.040;8.600;2023-05-10T03:13:12;11.57;;;7.43;;
80510;SDS011;69840;53.040;8.600;2023-05-10T03:21:33;9.38;;;6.88;;
80510;SDS011;69840;53.040;8.600;2023-05-10T03:24:06;13.30;;;6.80;;
80510;SDS011;69840;53.040;8.600;2023-05-10T03:26:36;9.73;;;6.72;;
80510;SDS011;69840;53.040;8.600;2023-05-10T03:29:13;10.48;;;7.55;;
80510;SDS011;69840;53.040;8.600;2023-05-10T03:31:42;11.90;;;6.28;;
80510;SDS011;69840;53.040;8.600;2023-05-10T03:34:10;9.68;;;6.10;;
80510;SDS011;69840;53.040;8.600;2023-05-10T03:36:37;12.73;;;7.65;;
80510;SDS011;69840;53.040;8.600;2023-05-10T03:39:04;10.02;;;7.20;;
80510;SDS011;69840;53.040;8.600;2023-05-10T03:41:32;9.10;;;6.80;;
80510;SDS011;69840;53.040;8.600;2023-05-10T03:44:00;10.93;;;7.55;;
80510;SDS011;69840;53.040;8.600;2023-05-10T03:46:28;10.20;;;7.28;;
80510;SDS011;69840;53.040;8.600;2023-05-10T03:48:55;11.10;;;7.10;;
80510;SDS011;69840;53.040;8.600;2023-05-10T03:51:23;10.00;;;6.78;;
80510;SDS011;69840;53.040;8.600;2023-05-10T03:53:51;10.60;;;6.90;;
80510;SDS011;69840;53.040;8.600;2023-05-10T03:56:19;10.13;;;7.50;;
80510;SDS011;69840;53.040;8.600;2023-05-10T03:58:46;12.30;;;7.53;;
80510;SDS011;69840;53.040;8.600;2023-05-10T04:01:14;12.10;;;7.68;;
80510;SDS011;69840;53.040;8.600;2023-05-10T04:03:41;9.68;;;7.28;;
80510;SDS011;69840;53.040;8.600;2023-05-10T04:06:09;11.02;;;7.22;;
80510;SDS011;69840;53.040;8.600;2023-05-10T04:08:36;10.70;;;6.75;;
80510;SDS011;69840;53.040;8.600;2023-05-10T04:11:04;10.27;;;5.80;;
80510;SDS011;69840;53.040;8.600;2023-05-10T04:13:32;11.50;;;7.32;;
80510;SDS011;69840;53.040;8.600;2023-05-10T04:16:00;9.50;;;6.82;;
80510;SDS011;69840;53.040;8.600;2023-05-10T04:18:28;12.52;;;7.70;;
80510;SDS011;69840;53.040;8.600;2023-05-10T04:20:55;11.60;;;7.30;;
80510;SDS011;69840;53.040;8.600;2023-05-10T04:23:23;10.32;;;7.32;;
80510;SDS011;69840;53.040;8.600;2023-05-10T04:25:50;11.00;;;7.40;;
80510;SDS011;69840;53.040;8.600;2023-05-10T04:28:18;12.98;;;7.72;;
80510;SDS011;69840;53.040;8.600;2023-05-10T04:30:45;10.43;;;6.00;;
80510;SDS011;69840;53.040;8.600;2023-05-10T04:33:13;13.70;;;7.50;;
80510;SDS011;69840;53.040;8.600;2023-05-10T04:35:40;12.27;;;7.95;;
80510;SDS011;69840;53.040;8.600;2023-05-10T04:38:08;10.25;;;5.78;;
80510;SDS011;69840;53.040;8.600;2023-05-10T04:40:35;12.13;;;7.68;;
80510;SDS011;69840;53.040;8.600;2023-05-10T04:43:03;12.82;;;7.38;;
80510;SDS011;69840;53.040;8.600;2023-05-10T04:45:30;9.73;;;6.90;;
80510;SDS011;69840;53.040;8.600;2023-05-10T04:47:58;11.63;;;8.40;;
80510;SDS011;69840;53.040;8.600;2023-05-10T04:50:25;12.00;;;6.85;;
80510;SDS011;69840;53.040;8.600;2023-05-10T04:52:53;14.25;;;9.02;;
80510;SDS011;69840;53.040;8.600;2023-05-10T04:55:20;14.82;;;9.02;;
80510;SDS011;69840;53.040;8.600;2023-05-10T04:57:47;12.55;;;8.20;;
80510;SDS011;69840;53.040;8.600;2023-05-10T05:00:15;15.90;;;9.00;;
80510;SDS011;69840;53.040;8.600;2023-05-10T05:02:43;10.95;;;7.35;;
80510;SDS011;69840;53.040;8.600;2023-05-10T05:05:11;16.17;;;9.13;;
80510;SDS011;69840;53.040;8.600;2023-05-10T05:07:39;13.73;;;9.48;;
80510;SDS011;69840;53.040;8.600;2023-05-10T05:10:07;13.82;;;8.43;;
80510;SDS011;69840;53.040;8.600;2023-05-10T05:12:35;15.63;;;8.98;;
80510;SDS011;69840;53.040;8.600;2023-05-10T05:15:03;11.88;;;8.45;;
80510;SDS011;69840;53.040;8.600;2023-05-10T05:17:30;11.65;;;8.13;;
80510;SDS011;69840;53.040;8.600;2023-05-10T05:19:58;17.15;;;7.47;;
80510;SDS011;69840;53.040;8.600;2023-05-10T05:22:26;13.88;;;9.45;;
80510;SDS011;69840;53.040;8.600;2023-05-10T05:24:53;15.68;;;8.95;;
80510;SDS011;69840;53.040;8.600;2023-05-10T05:27:22;14.63;;;8.93;;
80510;SDS011;69840;53.040;8.600;2023-05-10T05:29:50;12.82;;;9.13;;
80510;SDS011;69840;53.040;8.600;2023-05-10T05:32:19;12.80;;;7.10;;
80510;SDS011;69840;53.040;8.600;2023-05-10T05:34:47;14.40;;;8.07;;
80510;SDS011;69840;53.040;8.600;2023-05-10T05:37:15;14.07;;;9.13;;
80510;SDS011;69840;53.040;8.600;2023-05-10T05:39:46;14.00;;;9.02;;
80510;SDS011;69840;53.040;8.600;2023-05-10T05:42:14;14.13;;;9.18;;
80510;SDS011;69840;53.040;8.600;2023-05-10T05:44:41;19.13;;;9.98;;
80510;SDS011;69840;53.040;8.600;2023-05-10T05:47:09;12.85;;;8.80;;
80510;SDS011;69840;53.040;8.600;2023-05-10T05:49:36;16.08;;;8.90;;
80510;SDS011;69840;53.040;8.600;2023-05-10T05:52:04;18.45;;;9.38;;
80510;SDS011;69840;53.040;8.600;2023-05-10T05:54:31;13.65;;;8.63;;
80510;SDS011;69840;53.040;8.600;2023-05-10T05:56:59;15.80;;;10.02;;
80510;SDS011;69840;53.040;8.600;2023-05-10T05:59:27;15.02;;;9.68;;
80510;SDS011;69840;53.040;8.600;2023-05-10T06:01:55;14.70;;;9.00;;
80510;SDS011;69840;53.040;8.600;2023-05-10T06:04:22;16.23;;;10.23;;
80510;SDS011;69840;53.040;8.600;2023-05-10T06:06:50;15.48;;;10.13;;
80510;SDS011;69840;53.040;8.600;2023-05-10T06:09:17;12.40;;;6.85;;
80510;SDS011;69840;53.040;8.600;2023-05-10T06:11:44;8.27;;;5.38;;
80510;SDS011;69840;53.040;8.600;2023-05-10T06:14:12;7.68;;;4.00;;
80510;SDS011;69840;53.040;8.600;2023-05-10T06:16:39;6.53;;;3.30;;
80510;SDS011;69840;53.040;8.600;2023-05-10T06:19:07;5.00;;;3.08;;
80510;SDS011;69840;53.040;8.600;2023-05-10T06:21:34;4.78;;;3.58;;
80510;SDS011;69840;53.040;8.600;2023-05-10T06:24:02;5.35;;;3.33;;
80510;SDS011;69840;53.040;8.600;2023-05-10T06:26:29;4.55;;;2.90;;
80510;SDS011;69840;53.040;8.600;2023-05-10T06:28:57;5.05;;;2.88;;
80510;SDS011;69840;53.040;8.600;2023-05-10T06:31:24;4.95;;;2.88;;
80510;SDS011;69840;53.040;8.600;2023-05-10T06:33:52;3.53;;;2.47;;
80510;SDS011;69840;53.040;8.600;2023-05-10T06:36:21;3.70;;;2.03;;
80510;SDS011;69840;53.040;8.600;2023-05-10T06:38:48;3.63;;;2.70;;
80510;SDS011;69840;53.040;8.600;2023-05-10T06:41:16;3.42;;;2.28;;
80510;SDS011;69840;53.040;8.600;2023-05-10T06:43:43;4.47;;;2.65;;
80510;SDS011;69840;53.040;8.600;2023-05-10T06:46:10;4.25;;;2.25;;
80510;SDS011;69840;53.040;8.600;2023-05-10T06:48:38;4.05;;;3.10;;
80510;SDS011;69840;53.040;8.600;2023-05-10T06:51:06;4.43;;;3.33;;
80510;SDS011;69840;53.040;8.600;2023-05-10T06:53:33;5.85;;;3.20;;
80510;SDS011;69840;53.040;8.600;2023-05-10T06:56:00;4.47;;;2.72;;
80510;SDS011;69840;53.040;8.600;2023-05-10T06:58:28;5.22;;;3.08;;
80510;SDS011;69840;53.040;8.600;2023-05-10T07:01:01;5.93;;;3.75;;
80510;SDS011;69840;53.040;8.600;2023-05-10T07:03:29;5.57;;;3.13;;
80510;SDS011;69840;53.040;8.600;2023-05-10T07:05:59;4.22;;;3.22;;
80510;SDS011;69840;53.040;8.600;2023-05-10T07:08:30;4.95;;;3.25;;
80510;SDS011;69840;53.040;8.600;2023-05-10T07:13:30;5.65;;;3.05;;
80510;SDS011;69840;53.040;8.600;2023-05-10T07:15:58;6.18;;;4.20;;
80510;SDS011;69840;53.040;8.600;2023-05-10T07:18:27;5.10;;;3.08;;
80510;SDS011;69840;53.040;8.600;2023-05-10T07:20:54;6.03;;;3.50;;
80510;SDS011;69840;53.040;8.600;2023-05-10T07:23:23;7.15;;;4.15;;
80510;SDS011;69840;53.040;8.600;2023-05-10T07:25:51;5.97;;;3.78;;
80510;SDS011;69840;53.040;8.600;2023-05-10T07:28:19;9.07;;;4.10;;
80510;SDS011;69840;53.040;8.600;2023-05-10T07:30:46;5.85;;;2.90;;
80510;SDS011;69840;53.040;8.600;2023-05-10T07:33:14;6.28;;;3.10;;
80510;SDS011;69840;53.040;8.600;2023-05-10T07:35:42;6.07;;;3.97;;
80510;SDS011;69840;53.040;8.600;2023-05-10T07:38:09;5.60;;;3.58;;
80510;SDS011;69840;53.040;8.600;2023-05-10T07:40:37;6.95;;;4.32;;
80510;SDS011;69840;53.040;8.600;2023-05-10T07:43:04;6.03;;;3.92;;
80510;SDS011;69840;53.040;8.600;2023-05-10T07:45:33;5.95;;;4.45;;
80510;SDS011;69840;53.040;8.600;2023-05-10T07:48:00;6.90;;;2.83;;
80510;SDS011;69840;53.040;8.600;2023-05-10T07:50:28;5.32;;;3.20;;
80510;SDS011;69840;53.040;8.600;2023-05-10T07:52:55;6.32;;;3.40;;
80510;SDS011;69840;53.040;8.600;2023-05-10T07:55:23;6.85;;;3.72;;
80510;SDS011;69840;53.040;8.600;2023-05-10T07:57:50;4.30;;;2.78;;
80510;SDS011;69840;53.040;8.600;2023-05-10T08:00:18;4.68;;;3.28;;
80510;SDS011;69840;53.040;8.600;2023-05-10T08:02:46;4.80;;;2.75;;
80510;SDS011;69840;53.040;8.600;2023-05-10T08:05:14;4.53;;;3.38;;
80510;SDS011;69840;53.040;8.600;2023-05-10T08:07:42;6.38;;;4.68;;
80510;SDS011;69840;53.040;8.600;2023-05-10T08:10:09;5.75;;;4.68;;
80510;SDS011;69840;53.040;8.600;2023-05-10T08:12:37;8.75;;;5.80;;
80510;SDS011;69840;53.040;8.600;2023-05-10T08:15:05;6.93;;;5.53;;
80510;SDS011;69840;53.040;8.600;2023-05-10T08:17:33;6.22;;;4.88;;
80510;SDS011;69840;53.040;8.600;2023-05-10T08:20:01;8.05;;;4.57;;
80510;SDS011;69840;53.040;8.600;2023-05-10T08:22:28;6.07;;;4.00;;
80510;SDS011;69840;53.040;8.600;2023-05-10T08:24:56;6.07;;;3.83;;
80510;SDS011;69840;53.040;8.600;2023-05-10T08:27:23;4.75;;;3.20;;
80510;SDS011;69840;53.040;8.600;2023-05-10T08:29:51;4.63;;;4.20;;
80510;SDS011;69840;53.040;8.600;2023-05-10T08:32:18;3.78;;;2.90;;
80510;SDS011;69840;53.040;8.600;2023-05-10T08:34:46;2.53;;;1.90;;
80510;SDS011;69840;53.040;8.600;2023-05-10T08:37:13;2.63;;;2.15;;
80510;SDS011;69840;53.040;8.600;2023-05-10T08:39:41;2.80;;;2.08;;
80510;SDS011;69840;53.040;8.600;2023-05-10T08:42:08;4.63;;;2.55;;
80510;SDS011;69840;53.040;8.600;2023-05-10T08:44:36;3.22;;;2.42;;
80510;SDS011;69840;53.040;8.600;2023-05-10T08:47:04;2.72;;;2.38;;
80510;SDS011;69840;53.040;8.600;2023-05-10T08:49:33;2.72;;;2.08;;
80510;SDS011;69840;53.040;8.600;2023-05-10T08:52:04;3.25;;;2.75;;
80510;SDS011;69840;53.040;8.600;2023-05-10T08:54:34;3.30;;;2.40;;
80510;SDS011;69840;53.040;8.600;2023-05-10T08:57:01;4.38;;;2.70;;
80510;SDS011;69840;53.040;8.600;2023-05-10T08:59:29;4.55;;;3.20;;
80510;SDS011;69840;53.040;8.600;2023-05-10T09:02:00;3.47;;;2.72;;
80510;SDS011;69840;53.040;8.600;2023-05-10T09:04:28;4.63;;;3.25;;
80510;SDS011;69840;53.040;8.600;2023-05-10T09:06:57;4.78;;;4.28;;
80510;SDS011;69840;53.040;8.600;2023-05-10T09:09:24;5.95;;;3.58;;
80510;SDS011;69840;53.040;8.600;2023-05-10T09:11:53;5.18;;;3.63;;
80510;SDS011;69840;53.040;8.600;2023-05-10T09:14:21;6.68;;;4.68;;
80510;SDS011;69840;53.040;8.600;2023-05-10T09:16:50;6.45;;;4.65;;
80510;SDS011;69840;53.040;8.600;2023-05-10T09:19:18;6.80;;;4.90;;
80510;SDS011;69840;53.040;8.600;2023-05-10T09:21:45;7.50;;;4.85;;
80510;SDS011;69840;53.040;8.600;2023-05-10T09:24:13;7.05;;;4.32;;
80510;SDS011;69840;53.040;8.600;2023-05-10T09:26:47;6.53;;;4.43;;
80510;SDS011;69840;53.040;8.600;2023-05-10T09:29:15;6.13;;;4.28;;
80510;SDS011;69840;53.040;8.600;2023-05-10T09:31:44;5.00;;;3.97;;
80510;SDS011;69840;53.040;8.600;2023-05-10T09:34:19;6.10;;;3.30;;
80510;SDS011;69840;53.040;8.600;2023-05-10T09:36:51;5.57;;;4.80;;
80510;SDS011;69840;53.040;8.600;2023-05-10T09:42:00;6.38;;;3.63;;
80510;SDS011;69840;53.040;8.600;2023-05-10T09:46:57;5.70;;;3.65;;
80510;SDS011;69840;53.040;8.600;2023-05-10T09:49:25;9.40;;;3.15;;
80510;SDS011;69840;53.040;8.600;2023-05-10T09:52:02;6.03;;;3.10;;
80510;SDS011;69840;53.040;8.600;2023-05-10T09:54:33;3.78;;;2.80;;
80510;SDS011;69840;53.040;8.600;2023-05-10T09:57:01;5.53;;;2.95;;
80510;SDS011;69840;53.040;8.600;2023-05-10T09:59:29;4.28;;;2.78;;
80510;SDS011;69840;53.040;8.600;2023-05-10T10:01:57;5.43;;;2.50;;
80510;SDS011;69840;53.040;8.600;2023-05-10T10:04:26;5.72;;;3.22;;
80510;SDS011;69840;53.040;8.600;2023-05-10T10:07:03;3.03;;;2.53;;
80510;SDS011;69840;53.040;8.600;2023-05-10T10:09:32;3.40;;;2.58;;
80510;SDS011;69840;53.040;8.600;2023-05-10T10:12:01;6.47;;;3.85;;
80510;SDS011;69840;53.040;8.600;2023-05-10T10:14:29;3.90;;;2.65;;
80510;SDS011;69840;53.040;8.600;2023-05-10T10:16:57;3.90;;;2.92;;
80510;SDS011;69840;53.040;8.600;2023-05-10T10:19:31;5.43;;;4.47;;
80510;SDS011;69840;53.040;8.600;2023-05-10T10:22:00;3.80;;;3.00;;
80510;SDS011;69840;53.040;8.600;2023-05-10T10:24:28;3.25;;;2.95;;
80510;SDS011;69840;53.040;8.600;2023-05-10T10:26:56;3.60;;;2.70;;
80510;SDS011;69840;53.040;8.600;2023-05-10T10:35:39;3.05;;;2.75;;
80510;SDS011;69840;53.040;8.600;2023-05-10T10:38:07;3.67;;;2.70;;
80510;SDS011;69840;53.040;8.600;2023-05-10T10:40:35;2.90;;;2.50;;
80510;SDS011;69840;53.040;8.600;2023-05-10T10:43:22;4.15;;;3.75;;
80510;SDS011;69840;53.040;8.600;2023-05-10T10:48:50;3.33;;;3.03;;
80510;SDS011;69840;53.040;8.600;2023-05-10T10:51:36;3.70;;;3.40;;
80510;SDS011;69840;53.040;8.600;2023-05-10T10:54:11;4.18;;;3.70;;
80510;SDS011;69840;53.040;8.600;2023-05-10T10:56:39;4.22;;;3.63;;
80510;SDS011;69840;53.040;8.600;2023-05-10T10:59:07;5.32;;;3.42;;
80510;SDS011;69840;53.040;8.600;2023-05-10T11:01:34;4.43;;;3.47;;
80510;SDS011;69840;53.040;8.600;2023-05-10T11:06:34;3.05;;;2.58;;
80510;SDS011;69840;53.040;8.600;2023-05-10T11:09:06;3.20;;;2.83;;
80510;SDS011;69840;53.040;8.600;2023-05-10T11:11:35;3.42;;;2.70;;
80510;SDS011;69840;53.040;8.600;2023-05-10T11:14:04;3.45;;;3.15;;
80510;SDS011;69840;53.040;8.600;2023-05-10T11:16:42;2.65;;;2.38;;
80510;SDS011;69840;53.040;8.600;2023-05-10T11:19:11;3.40;;;3.10;;
80510;SDS011;69840;53.040;8.600;2023-05-10T11:21:50;2.60;;;2.35;;
80510;SDS011;69840;53.040;8.600;2023-05-10T11:24:20;2.22;;;1.92;;
80510;SDS011;69840;53.040;8.600;2023-05-10T11:26:49;2.22;;;0.88;;
80510;SDS011;69840;53.040;8.600;2023-05-10T11:29:17;1.02;;;1.02;;
80510;SDS011;69840;53.040;8.600;2023-05-10T11:31:45;0.65;;;0.63;;
80510;SDS011;69840;53.040;8.600;2023-05-10T11:34:27;0.98;;;0.88;;
80510;SDS011;69840;53.040;8.600;2023-05-10T11:36:56;0.98;;;0.77;;
80510;SDS011;69840;53.040;8.600;2023-05-10T11:39:28;0.90;;;0.77;;
80510;SDS011;69840;53.040;8.600;2023-05-10T11:41:56;1.58;;;1.33;;
80510;SDS011;69840;53.040;8.600;2023-05-10T11:44:34;2.40;;;0.95;;
80510;SDS011;69840;53.040;8.600;2023-05-10T11:47:01;1.65;;;1.55;;
80510;SDS011;69840;53.040;8.600;2023-05-10T11:49:29;1.80;;;1.05;;
80510;SDS011;69840;53.040;8.600;2023-05-10T11:52:04;2.72;;;1.35;;
80510;SDS011;69840;53.040;8.600;2023-05-10T11:54:32;1.45;;;1.35;;
80510;SDS011;69840;53.040;8.600;2023-05-10T11:57:00;1.88;;;1.40;;
80510;SDS011;69840;53.040;8.600;2023-05-10T11:59:27;2.10;;;1.20;;
80510;SDS011;69840;53.040;8.600;2023-05-10T12:01:55;1.85;;;0.93;;
80510;SDS011;69840;53.040;8.600;2023-05-10T12:04:22;1.23;;;1.13;;
80510;SDS011;69840;53.040;8.600;2023-05-10T12:06:50;1.38;;;1.27;;
80510;SDS011;69840;53.040;8.600;2023-05-10T12:09:18;0.80;;;0.80;;
80510;SDS011;69840;53.040;8.600;2023-05-10T12:11:49;1.33;;;1.25;;
80510;SDS011;69840;53.040;8.600;2023-05-10T12:14:16;1.23;;;1.13;;
80510;SDS011;69840;53.040;8.600;2023-05-10T12:16:43;2.58;;;1.95;;
80510;SDS011;69840;53.040;8.600;2023-05-10T12:19:11;1.50;;;1.40;;
80510;SDS011;69840;53.040;8.600;2023-05-10T12:21:38;1.20;;;1.10;;
80510;SDS011;69840;53.040;8.600;2023-05-10T12:24:06;1.95;;;1.85;;
80510;SDS011;69840;53.040;8.600;2023-05-10T12:26:34;1.90;;;1.55;;
80510;SDS011;69840;53.040;8.600;2023-05-10T12:29:15;2.10;;;1.60;;
80510;SDS011;69840;53.040;8.600;2023-05-10T12:31:51;2.60;;;1.88;;
80510;SDS011;69840;53.040;8.600;2023-05-10T12:34:33;3.22;;;1.60;;
80510;SDS011;69840;53.040;8.600;2023-05-10T12:37:02;3.25;;;2.20;;
80510;SDS011;69840;53.040;8.600;2023-05-10T12:39:43;2.20;;;2.00;;
80510;SDS011;69840;53.040;8.600;2023-05-10T12:42:11;2.15;;;1.95;;
80510;SDS011;69840;53.040;8.600;2023-05-10T12:44:39;2.15;;;1.65;;
80510;SDS011;69840;53.040;8.600;2023-05-10T12:47:06;2.00;;;1.80;;
80510;SDS011;69840;53.040;8.600;2023-05-10T12:49:34;2.00;;;1.80;;
80510;SDS011;69840;53.040;8.600;2023-05-10T12:52:02;2.40;;;1.65;;
80510;SDS011;69840;53.040;8.600;2023-05-10T12:54:29;2.08;;;1.88;;
80510;SDS011;69840;53.040;8.600;2023-05-10T12:56:57;3.35;;;1.88;;
80510;SDS011;69840;53.040;8.600;2023-05-10T12:59:24;2.83;;;2.00;;
80510;SDS011;69840;53.040;8.600;2023-05-10T13:01:51;2.63;;;2.28;;
80510;SDS011;69840;53.040;8.600;2023-05-10T13:04:19;2.28;;;2.08;;
80510;SDS011;69840;53.040;8.600;2023-05-10T13:06:46;3.00;;;2.17;;
80510;SDS011;69840;53.040;8.600;2023-05-10T13:09:14;2.20;;;1.95;;
80510;SDS011;69840;53.040;8.600;2023-05-10T13:11:42;2.10;;;1.90;;
80510;SDS011;69840;53.040;8.600;2023-05-10T13:14:09;3.03;;;2.20;;
80510;SDS011;69840;53.040;8.600;2023-05-10T13:16:37;2.35;;;2.15;;
80510;SDS011;69840;53.040;8.600;2023-05-10T13:19:04;2.55;;;2.22;;
80510;SDS011;69840;53.040;8.600;2023-05-10T13:21:32;2.30;;;2.00;;
80510;SDS011;69840;53.040;8.600;2023-05-10T13:23:59;2.22;;;1.98;;
80510;SDS011;69840;53.040;8.600;2023-05-10T13:26:26;2.45;;;2.25;;
80510;SDS011;69840;53.040;8.600;2023-05-10T13:28:54;2.13;;;1.90;;
80510;SDS011;69840;53.040;8.600;2023-05-10T13:31:21;2.47;;;2.17;;
80510;SDS011;69840;53.040;8.600;2023-05-10T13:33:49;3.38;;;2.35;;
80510;SDS011;69840;53.040;8.600;2023-05-10T13:36:16;2.95;;;2.30;;
80510;SDS011;69840;53.040;8.600;2023-05-10T13:38:44;2.70;;;2.13;;
80510;SDS011;69840;53.040;8.600;2023-05-10T13:41:11;3.45;;;2.40;;
80510;SDS011;69840;53.040;8.600;2023-05-10T13:43:38;3.28;;;2.85;;
80510;SDS011;69840;53.040;8.600;2023-05-10T13:46:06;2.95;;;2.47;;
80510;SDS011;69840;53.040;8.600;2023-05-10T13:48:33;2.72;;;2.53;;
80510;SDS011;69840;53.040;8.600;2023-05-10T13:51:02;2.80;;;2.42;;
80510;SDS011;69840;53.040;8.600;2023-05-10T13:53:30;3.30;;;2.67;;
80510;SDS011;69840;53.040;8.600;2023-05-10T13:55:57;2.58;;;2.38;;
80510;SDS011;69840;53.040;8.600;2023-05-10T13:58:25;2.85;;;2.60;;
80510;SDS011;69840;53.040;8.600;2023-05-10T14:00:52;4.22;;;2.83;;
80510;SDS011;69840;53.040;8.600;2023-05-10T14:03:20;4.90;;;2.70;;
80510;SDS011;69840;53.040;8.600;2023-05-10T14:05:47;2.63;;;2.40;;
80510;SDS011;69840;53.040;8.600;2023-05-10T14:08:14;3.20;;;2.78;;
80510;SDS011;69840;53.040;8.600;2023-05-10T14:10:42;3.03;;;2.75;;
80510;SDS011;69840;53.040;8.600;2023-05-10T14:13:09;2.72;;;2.50;;
80510;SDS011;69840;53.040;8.600;2023-05-10T14:15:37;2.80;;;2.53;;
80510;SDS011;69840;53.040;8.600;2023-05-10T14:18:04;3.13;;;2.83;;
80510;SDS011;69840;53.040;8.600;2023-05-10T14:20:34;2.50;;;1.98;;
80510;SDS011;69840;53.040;8.600;2023-05-10T14:23:02;2.55;;;2.35;;
80510;SDS011;69840;53.040;8.600;2023-05-10T14:25:29;2.30;;;2.10;;
80510;SDS011;69840;53.040;8.600;2023-05-10T14:27:57;2.17;;;1.90;;
80510;SDS011;69840;53.040;8.600;2023-05-10T14:30:24;3.47;;;2.80;;
80510;SDS011;69840;53.040;8.600;2023-05-10T14:32:51;3.22;;;2.33;;
80510;SDS011;69840;53.040;8.600;2023-05-10T14:35:19;3.05;;;2.40;;
80510;SDS011;69840;53.040;8.600;2023-05-10T14:37:47;3.00;;;2.80;;
80510;SDS011;69840;53.040;8.600;2023-05-10T14:40:15;2.90;;;2.70;;
80510;SDS011;69840;53.040;8.600;2023-05-10T14:42:42;2.28;;;1.60;;
80510;SDS011;69840;53.040;8.600;2023-05-10T14:45:10;3.83;;;2.30;;
80510;SDS011;69840;53.040;8.600;2023-05-10T14:47:38;1.95;;;1.40;;
80510;SDS011;69840;53.040;8.600;2023-05-10T14:50:05;2.50;;;2.30;;
80510;SDS011;69840;53.040;8.600;2023-05-10T14:52:33;5.63;;;2.47;;
80510;SDS011;69840;53.040;8.600;2023-05-10T14:55:00;3.03;;;2.72;;
80510;SDS011;69840;53.040;8.600;2023-05-10T14:57:28;2.45;;;2.25;;
80510;SDS011;69840;53.040;8.600;2023-05-10T14:59:55;1.65;;;1.27;;
80510;SDS011;69840;53.040;8.600;2023-05-10T15:02:23;1.80;;;1.40;;
80510;SDS011;69840;53.040;8.600;2023-05-10T15:04:50;2.05;;;1.75;;
80510;SDS011;69840;53.040;8.600;2023-05-10T15:07:17;2.33;;;2.13;;
80510;SDS011;69840;53.040;8.600;2023-05-10T15:09:45;2.58;;;2.10;;
80510;SDS011;69840;53.040;8.600;2023-05-10T15:12:13;3.88;;;2.38;;
80510;SDS011;69840;53.040;8.600;2023-05-10T15:14:40;3.97;;;1.55;;
80510;SDS011;69840;53.040;8.600;2023-05-10T15:17:07;2.50;;;2.30;;
80510;SDS011;69840;53.040;8.600;2023-05-10T15:19:35;1.92;;;1.83;;
80510;SDS011;69840;53.040;8.600;2023-05-10T15:22:03;2.83;;;2.47;;
80510;SDS011;69840;53.040;8.600;2023-05-10T15:24:32;2.67;;;1.95;;
80510;SDS011;69840;53.040;8.600;2023-05-10T15:26:59;3.90;;;1.33;;
80510;SDS011;69840;53.040;8.600;2023-05-10T15:29:27;2.40;;;2.15;;
80510;SDS011;69840;53.040;8.600;2023-05-10T15:31:54;2.30;;;2.10;;
80510;SDS011;69840;53.040;8.600;2023-05-10T15:34:22;2.10;;;1.90;;